Latest Weather Observations for Cerberus

IDV60801

Issued at 4:32 pm EDT Saturday 25 March 2017 (issued every 30 minutes, with the page automatically refreshed every 10 minutes)

About weather observations | Map of weather stations | Latest weather observations for VIC | Other Formats
Station Details ID: 086361 Name: CERBERUS Lat: -38.36 Lon: 145.18 Height: 12.69 m
Data from the previous 72 hours. | See also: Recent months at Cerberus
Date/Time
EDT
Temp
°C
App
Temp
°C
Dew
Point
°C
Rel
Hum
%
Delta-T
°C
Wind Press
QNH
hPa
Press
MSL
hPa
Rain since
9am
mm
Dir  Spd
km/h
Gust
km/h
Spd
kts
Gust
kts
25/04:30pm 27.2 26.4 15.2 47 7.3 S 13 15 7 8 1010.2 1010.2 0.0
25/04:00pm 26.9 26.1 15.0 48 7.2 S 13 17 7 9 1010.2 1010.2 0.0
25/03:30pm 26.7 25.5 15.1 49 7.0 SSW 15 19 8 10 1010.5 1010.5 0.0
25/03:00pm 27.9 28.0 15.5 46 7.6 S 9 15 5 8 1010.6 1010.6 0.0
25/02:30pm 28.4 27.9 15.0 44 8.1 W 11 19 6 10 1010.8 1010.8 0.0
25/02:00pm 28.0 27.2 13.9 42 8.4 NW 11 17 6 9 1011.0 1011.0 0.0
25/01:30pm 26.7 26.2 16.0 52 6.6 NW 13 22 7 12 1011.3 1011.3 0.0
25/01:00pm 26.8 25.8 15.5 50 6.9 NNW 15 22 8 12 1011.6 1011.6 0.0
25/12:30pm 26.7 25.4 15.7 51 6.7 NW 17 26 9 14 1011.9 1011.9 0.0
25/12:00pm 24.8 23.8 15.7 57 5.5 NNW 15 26 8 14 1012.3 1012.3 0.0
25/11:30am 24.6 22.7 15.8 58 5.3 NNW 20 35 11 19 1012.4 1012.4 0.0
25/11:00am 23.5 21.5 15.5 60 4.8 NNW 20 33 11 18 1012.6 1012.6 0.0
25/10:30am 23.2 22.5 15.5 62 4.6 N 13 24 7 13 1012.6 1012.6 0.0
25/10:00am 23.5 22.6 15.8 62 4.7 NNW 15 32 8 17 1012.5 1012.5 0.0
25/09:30am 22.6 23.5 16.6 69 3.7 N 7 20 4 11 1012.5 1012.5 0.0
25/09:00am 19.8 20.4 15.2 75 2.7 N 6 11 3 6 1012.5 1012.5 0.0
25/08:30am 18.4 18.9 14.9 80 2.0 N 6 9 3 5 1012.4 1012.4 0.0
25/08:00am 17.4 18.2 14.7 84 1.6 N 4 6 2 3 1012.1 1012.1 0.0
25/07:30am 17.0 18.1 14.5 85 1.4 NNW 2 4 1 2 1011.9 1011.9 0.0
25/07:00am 16.7 17.7 14.2 85 1.4 N 2 4 1 2 1011.9 1011.9 0.0
25/06:30am 16.6 17.1 14.1 85 1.4 N 4 6 2 3 1011.9 1011.9 0.0
25/06:00am 16.6 17.5 14.1 85 1.4 N 2 4 1 2 1011.9 1011.9 0.0
25/05:30am 16.8 17.7 14.1 84 1.5 N 2 4 1 2 1012.1 1012.1 0.0
25/05:00am 17.1 17.7 14.2 83 1.7 NNE 4 6 2 3 1011.9 1011.9 0.0
25/04:30am 17.2 17.8 14.3 83 1.7 NNE 4 9 2 5 1011.9 1011.9 0.0
25/04:00am 17.3 17.3 14.2 82 1.8 NNE 7 13 4 7 1012.0 1012.0 0.0
25/03:30am 17.5 17.1 14.2 81 1.9 NNE 9 19 5 10 1012.4 1012.4 0.0
25/03:00am 17.6 17.2 14.1 80 2.0 NE 9 15 5 8 1012.9 1012.9 0.0
25/02:30am 17.7 17.3 14.2 80 2.0 NNE 9 17 5 9 1013.9 1013.8 0.0
25/02:00am 17.7 17.6 14.0 79 2.1 NE 7 15 4 8 1014.7 1014.6 0.0
25/01:30am 17.8 18.0 14.1 79 2.1 NNE 6 11 3 6 1014.9 1014.8 0.0
25/01:00am 17.9 17.8 14.0 78 2.2 NE 7 15 4 8 1014.8 1014.7 0.0
25/12:30am 18.0 17.5 13.9 77 2.3 NE 9 20 5 11 1014.8 1014.7 0.0
25/12:00am 18.0 17.2 13.9 77 2.3 NE 11 20 6 11 1015.1 1015.0 0.0
 
Date/Time
EDT
Temp
°C
App
Temp
°C
Dew
Point
°C
Rel
Hum
%
Delta-T
°C
Wind Press
QNH
hPa
Press
MSL
hPa
Rain since
9am
mm
Dir  Spd
km/h
Gust
km/h
Spd
kts
Gust
kts
24/11:30pm 18.1 17.2 13.8 76 2.5 NE 11 22 6 12 1015.3 1015.2 0.0
24/11:00pm 18.2 17.3 13.7 75 2.6 NE 11 24 6 13 1015.4 1015.3 0.0
24/10:30pm 18.3 17.4 13.6 74 2.7 NE 11 20 6 11 1015.9 1015.8 0.0
24/10:00pm 18.4 17.4 13.5 73 2.8 NE 11 20 6 11 1015.9 1015.8 0.0
24/09:30pm 18.7 18.1 13.6 72 2.9 NE 9 20 5 11 1016.1 1016.0 0.0
24/09:00pm 18.9 18.2 13.3 70 3.2 NE 9 15 5 8 1016.3 1016.2 0.0
24/08:30pm 19.2 18.6 13.4 69 3.3 ENE 9 17 5 9 1016.4 1016.3 0.0
24/08:00pm 19.6 18.6 13.3 67 3.6 ENE 11 19 6 10 1016.1 1016.0 0.0
24/07:30pm 20.0 19.0 13.5 66 3.7 ENE 11 17 6 9 1016.0 1015.9 0.0
24/07:00pm 20.5 19.1 13.5 64 4.0 ENE 13 20 7 11 1016.1 1016.0 0.0
24/06:30pm 21.3 19.9 13.5 61 4.5 ENE 13 19 7 10 1015.7 1015.6 0.0
24/06:00pm 22.4 21.1 13.7 58 5.0 ENE 13 22 7 12 1016.3 1016.2 0.0
24/05:30pm 23.2 22.9 14.5 58 5.1 ENE 9 15 5 8 1015.5 1015.4 0.0
24/05:00pm 22.8 22.1 13.3 55 5.5 NE 9 20 5 11 1015.5 1015.4 0.0
24/04:30pm 22.8 21.6 12.7 53 5.8 NE 11 17 6 9 1015.6 1015.5 0.0
24/04:00pm 23.3 22.0 12.6 51 6.1 NE 11 20 6 11 1015.7 1015.6 0.0
24/03:30pm 23.7 22.7 13.3 52 6.0 ENE 11 17 6 9 1016.2 1016.1 0.0
24/03:00pm 23.0 21.5 13.2 54 5.6 NE 13 20 7 11 1017.0 1016.9 0.0
24/02:30pm 22.3 20.6 13.6 58 5.0 NE 15 22 8 12 1017.3 1017.2 0.0
24/02:00pm 21.9 19.5 12.7 56 5.2 ENE 17 28 9 15 1017.7 1017.6 0.0
24/01:30pm 22.6 20.3 13.1 55 5.5 ENE 17 28 9 15 1018.1 1018.0 0.0
24/01:00pm 22.2 19.6 13.3 57 5.1 ENE 19 30 10 16 1018.9 1018.8 0.0
24/12:30pm 21.4 20.1 13.8 62 4.4 ENE 13 22 7 12 1019.5 1019.4 0.0
24/12:00pm 21.4 20.5 13.6 61 4.5 ENE 11 22 6 12 1019.8 1019.7 0.0
24/11:30am 21.1 19.1 13.8 63 4.2 ENE 17 24 9 13 1020.1 1020.0 0.0
24/11:00am 21.3 19.6 13.7 62 4.4 ENE 15 24 8 13 1020.2 1020.1 0.0
24/10:30am 20.7 18.8 14.1 66 3.8 ENE 17 26 9 14 1020.2 1020.1 0.0
24/10:00am 19.1 17.0 13.7 71 3.1 ENE 17 32 9 17 1020.4 1020.3 0.0
24/09:30am 18.4 18.2 13.5 73 2.8 E 7 13 4 7 1020.3 1020.2 0.0
24/09:00am 17.7 17.1 13.4 76 2.4 E 9 15 5 8 1020.3 1020.2 0.0
24/08:30am 17.3 15.7 12.8 75 2.5 E 13 22 7 12 1019.7 1019.6 0.0
24/08:00am 16.9 15.3 12.8 77 2.3 ESE 13 26 7 14 1019.3 1019.2 0.0
24/07:30am 16.4 15.2 12.8 79 2.0 ESE 11 24 6 13 1019.4 1019.3 0.0
24/07:00am 16.3 15.1 12.7 79 2.0 ESE 11 19 6 10 1019.3 1019.2 0.0
24/06:30am 16.3 15.1 12.7 79 2.0 ESE 11 19 6 10 1019.4 1019.3 0.0
24/06:00am 16.3 15.1 12.7 79 2.0 ESE 11 19 6 10 1019.3 1019.2 0.0
24/05:30am 16.1 15.2 12.5 79 2.0 E 9 19 5 10 1019.5 1019.4 0.0
24/05:00am 16.0 14.8 12.9 82 1.7 E 11 26 6 14 1018.9 1018.8 0.0
24/04:30am 16.3 14.5 13.2 82 1.7 ESE 15 26 8 14 1019.3 1019.2 0.0
24/04:00am 16.5 15.0 13.2 81 1.8 ESE 13 24 7 13 1019.9 1019.8 0.0
24/03:30am 16.4 14.9 13.1 81 1.8 ESE 13 28 7 15 1020.2 1020.1 0.0
24/03:00am 16.2 15.4 12.9 81 1.8 SE 9 17 5 9 1020.8 1020.7 0.0
24/02:30am 16.8 15.5 12.5 76 2.4 ESE 11 19 6 10 1021.0 1020.9 0.0
24/02:00am 16.6 16.1 12.6 77 2.2 ESE 7 11 4 6 1021.1 1021.0 0.0
24/01:30am 16.5 16.0 12.7 78 2.1 SE 7 17 4 9 1021.3 1021.2 0.0
24/01:00am 16.7 15.4 12.5 76 2.3 E 11 17 6 9 1020.9 1020.8 0.0
24/12:30am 16.9 15.6 12.4 75 2.5 E 11 19 6 10 1020.8 1020.7 0.0
24/12:00am 17.0 15.6 12.1 73 2.7 E 11 19 6 10 1021.2 1021.1 0.0
 
Date/Time
EDT
Temp
°C
App
Temp
°C
Dew
Point
°C
Rel
Hum
%
Delta-T
°C
Wind Press
QNH
hPa
Press
MSL
hPa
Rain since
9am
mm
Dir  Spd
km/h
Gust
km/h
Spd
kts
Gust
kts
23/11:30pm 17.1 15.8 12.4 74 2.6 ESE 11 20 6 11 1021.6 1021.5 0.0
23/11:00pm 17.2 15.6 12.7 75 2.5 E 13 19 7 10 1021.4 1021.3 0.0
23/10:30pm 17.2 16.0 12.7 75 2.5 E 11 20 6 11 1021.8 1021.7 0.0
23/10:00pm 17.4 16.1 12.5 73 2.7 ESE 11 19 6 10 1022.0 1021.9 0.0
23/09:30pm 17.9 16.1 13.2 74 2.6 ESE 15 24 8 13 1021.6 1021.5 0.0
23/09:00pm 18.2 16.5 13.7 75 2.6 ESE 15 28 8 15 1021.2 1021.1 0.0
23/08:30pm 18.4 16.8 13.9 75 2.6 ESE 15 30 8 16 1020.9 1020.8 0.0
23/08:00pm 18.6 16.7 14.1 75 2.6 ESE 17 28 9 15 1020.4 1020.3 0.0
23/07:30pm 19.0 16.6 13.8 72 3.0 ESE 19 32 10 17 1020.1 1020.0 0.0
23/07:00pm 19.6 16.9 13.5 68 3.5 SE 20 35 11 19 1020.0 1019.9 0.0
23/06:30pm 20.2 17.5 13.6 66 3.8 SE 20 37 11 20 1019.8 1019.7 0.0
23/06:00pm 20.9 18.3 13.8 64 4.1 ESE 20 35 11 19 1019.7 1019.6 0.0
23/05:30pm 21.8 19.3 14.2 62 4.4 SE 20 37 11 20 1019.5 1019.4 0.0
23/05:00pm 22.0 19.5 14.1 61 4.6 SE 20 35 11 19 1019.4 1019.3 0.0
23/04:30pm 21.8 19.5 14.2 62 4.4 SE 19 32 10 17 1019.5 1019.4 0.0
23/04:00pm 21.5 18.3 14.2 63 4.2 SE 24 39 13 21 1019.7 1019.6 0.0
23/03:30pm 21.8 18.6 14.2 62 4.4 SE 24 35 13 19 1019.7 1019.6 0.0
23/03:00pm 21.8 19.2 13.9 61 4.6 SE 20 35 11 19 1019.7 1019.6 0.0
23/02:30pm 22.2 19.4 14.3 61 4.6 SE 22 39 12 21 1019.8 1019.7 0.0
23/02:00pm 22.7 19.4 12.9 54 5.6 SE 22 39 12 21 1020.0 1019.9 0.0
23/01:30pm 21.7 18.8 12.3 55 5.3 ESE 19 30 10 16 1020.6 1020.5 0.0
23/01:00pm 21.9 19.1 12.5 55 5.3 ESE 19 32 10 17 1020.9 1020.8 0.0
23/12:30pm 21.6 18.9 13.0 58 4.9 ESE 19 30 10 16 1021.1 1021.0 0.0
23/12:00pm 21.1 18.2 13.0 60 4.6 SE 20 33 11 18 1021.3 1021.2 0.0
23/11:30am 20.9 18.0 12.8 60 4.6 ESE 20 32 11 17 1021.6 1021.5 0.0
23/11:00am 20.5 18.0 13.5 64 4.0 ESE 19 30 10 16 1021.7 1021.6 0.0
23/10:30am 19.8 17.4 13.7 68 3.5 ESE 19 28 10 15 1021.6 1021.5 0.0
23/10:00am 19.0 16.8 14.3 74 2.7 ESE 19 30 10 16 1021.6 1021.5 0.0
23/09:30am 18.3 16.1 14.4 78 2.2 ESE 19 35 10 19 1021.7 1021.6 0.0
23/09:00am 17.6 15.4 14.3 81 1.9 ESE 19 35 10 19 1021.6 1021.5 0.4
23/08:30am 17.1 14.8 14.0 82 1.8 ESE 19 35 10 19 1021.3 1021.2 0.4
23/08:00am 16.8 13.9 14.1 84 1.5 SE 22 33 12 18 1021.3 1021.2 0.4
23/07:30am 16.5 14.2 14.0 85 1.4 SE 19 32 10 17 1021.0 1020.9 0.4
23/07:00am 16.6 14.0 13.9 84 1.5 SE 20 33 11 18 1020.8 1020.7 0.4
23/06:30am 16.6 14.1 14.1 85 1.4 SE 20 33 11 18 1020.6 1020.5 0.4
23/06:00am 16.2 14.5 13.7 85 1.4 SE 15 22 8 12 1020.4 1020.3 0.4
23/05:30am 16.3 14.3 13.8 85 1.4 SE 17 28 9 15 1020.2 1020.1 0.4
23/05:00am 16.3 14.2 13.6 84 1.5 SE 17 28 9 15 1020.2 1020.1 0.4
23/04:30am 16.3 14.1 13.4 83 1.6 SE 17 28 9 15 1020.4 1020.3 0.4
23/04:00am 16.4 14.6 13.3 82 1.7 ESE 15 28 8 15 1020.3 1020.2 0.4
23/03:30am 16.3 13.7 13.2 82 1.7 ESE 19 33 10 18 1020.3 1020.2 0.4
23/03:00am 16.1 13.8 13.0 82 1.7 SE 17 28 9 15 1020.6 1020.5 0.4
23/02:30am 16.4 14.8 12.9 80 1.9 SE 13 22 7 12 1020.5 1020.4 0.4
23/02:00am 16.4 14.0 12.6 78 2.1 ESE 17 26 9 14 1020.7 1020.6 0.4
23/01:30am 16.3 14.6 12.5 78 2.1 ESE 13 28 7 15 1020.9 1020.8 0.4
23/01:00am 16.4 14.7 12.4 77 2.2 ESE 13 24 7 13 1021.0 1020.9 0.4
23/12:30am 16.7 15.1 12.7 77 2.2 ESE 13 22 7 12 1020.9 1020.8 0.4
23/12:00am 16.6 15.8 12.8 78 2.1 ESE 9 19 5 10 1021.0 1020.9 0.4
 
Date/Time
EDT
Temp
°C
App
Temp
°C
Dew
Point
°C
Rel
Hum
%
Delta-T
°C
Wind Press
QNH
hPa
Press
MSL
hPa
Rain since
9am
mm
Dir  Spd
km/h
Gust
km/h
Spd
kts
Gust
kts
22/11:30pm 16.8 15.2 12.9 78 2.2 E 13 24 7 13 1021.0 1020.9 0.4
22/11:00pm 17.1 15.3 13.2 78 2.2 E 15 26 8 14 1021.0 1020.9 0.4
22/10:30pm 17.1 16.0 13.0 77 2.3 ESE 11 24 6 13 1021.0 1020.9 0.4
22/10:00pm 17.2 15.7 13.1 77 2.3 ESE 13 22 7 12 1020.9 1020.8 0.4
22/09:30pm 17.5 15.3 13.4 77 2.3 ESE 17 35 9 19 1020.8 1020.7 0.4
22/09:00pm 17.6 15.1 13.5 77 2.3 ESE 19 32 10 17 1020.2 1020.1 0.4
22/08:30pm 18.1 15.7 14.4 79 2.1 ESE 20 33 11 18 1019.8 1019.7 0.4
22/08:00pm 18.6 17.5 14.3 76 2.5 ESE 13 24 7 13 1019.1 1019.0 0.4
22/07:30pm 19.0 16.7 14.1 73 2.8 ESE 19 33 10 18 1018.6 1018.5 0.4
22/07:00pm 19.3 16.8 14.1 72 3.0 ESE 20 33 11 18 1018.3 1018.2 0.4
22/06:30pm 19.7 17.4 14.1 70 3.2 ESE 19 35 10 19 1018.1 1018.0 0.4
22/06:00pm 20.0 17.6 13.7 67 3.6 ESE 19 30 10 16 1018.1 1018.0 0.4
22/05:30pm 20.5 18.0 14.2 67 3.7 ESE 20 35 11 19 1017.7 1017.6 0.4
22/05:00pm 19.8 17.6 14.4 71 3.1 SE 19 30 10 16 1018.0 1017.9 0.4

Other Formats:

Comma delimited format used in spreadsheet applications
http://www.bom.gov.au/fwo/IDV60801/IDV60801.94898.axf

JavaScript Object Notation format (JSON) in row-major order
http://www.bom.gov.au/fwo/IDV60801/IDV60801.94898.json